sensor_id;sensor_type;location;lat;lon;timestamp;P1;durP1;ratioP1;P2;durP2;ratioP2
35257;SDS011;21385;50.878;8.050;2023-11-21T00:01:51;3.42;;;2.58;;
35257;SDS011;21385;50.878;8.050;2023-11-21T00:04:16;3.70;;;2.65;;
35257;SDS011;21385;50.878;8.050;2023-11-21T00:06:42;16.58;;;2.13;;
35257;SDS011;21385;50.878;8.050;2023-11-21T00:09:08;4.38;;;2.25;;
35257;SDS011;21385;50.878;8.050;2023-11-21T00:11:34;3.03;;;2.13;;
35257;SDS011;21385;50.878;8.050;2023-11-21T00:14:00;1.85;;;1.73;;
35257;SDS011;21385;50.878;8.050;2023-11-21T00:16:26;3.03;;;2.28;;
35257;SDS011;21385;50.878;8.050;2023-11-21T00:18:51;2.08;;;1.88;;
35257;SDS011;21385;50.878;8.050;2023-11-21T00:21:17;9.20;;;2.03;;
35257;SDS011;21385;50.878;8.050;2023-11-21T00:23:42;3.10;;;2.45;;
35257;SDS011;21385;50.878;8.050;2023-11-21T00:26:08;2.15;;;1.52;;
35257;SDS011;21385;50.878;8.050;2023-11-21T00:28:34;2.05;;;1.55;;
35257;SDS011;21385;50.878;8.050;2023-11-21T00:30:59;1.92;;;1.25;;
35257;SDS011;21385;50.878;8.050;2023-11-21T00:33:25;1.08;;;0.82;;
35257;SDS011;21385;50.878;8.050;2023-11-21T00:35:50;1.30;;;1.05;;
35257;SDS011;21385;50.878;8.050;2023-11-21T00:38:16;1.65;;;1.25;;
35257;SDS011;21385;50.878;8.050;2023-11-21T00:40:44;6.47;;;1.65;;
35257;SDS011;21385;50.878;8.050;2023-11-21T00:43:10;2.22;;;1.85;;
35257;SDS011;21385;50.878;8.050;2023-11-21T00:45:36;2.83;;;1.52;;
35257;SDS011;21385;50.878;8.050;2023-11-21T00:48:02;2.53;;;1.20;;
35257;SDS011;21385;50.878;8.050;2023-11-21T00:50:29;2.70;;;2.30;;
35257;SDS011;21385;50.878;8.050;2023-11-21T00:52:55;2.30;;;1.67;;
35257;SDS011;21385;50.878;8.050;2023-11-21T00:55:21;3.53;;;2.00;;
35257;SDS011;21385;50.878;8.050;2023-11-21T00:57:47;1.63;;;1.38;;
35257;SDS011;21385;50.878;8.050;2023-11-21T01:00:13;5.80;;;2.42;;
35257;SDS011;21385;50.878;8.050;2023-11-21T01:02:42;8.85;;;2.50;;
35257;SDS011;21385;50.878;8.050;2023-11-21T01:05:09;2.90;;;1.85;;
35257;SDS011;21385;50.878;8.050;2023-11-21T01:07:35;3.10;;;2.45;;
35257;SDS011;21385;50.878;8.050;2023-11-21T01:10:02;2.92;;;2.20;;
35257;SDS011;21385;50.878;8.050;2023-11-21T01:12:30;7.72;;;1.50;;
35257;SDS011;21385;50.878;8.050;2023-11-21T01:14:56;2.10;;;1.48;;
35257;SDS011;21385;50.878;8.050;2023-11-21T01:17:25;9.65;;;2.45;;
35257;SDS011;21385;50.878;8.050;2023-11-21T01:19:50;2.08;;;1.67;;
35257;SDS011;21385;50.878;8.050;2023-11-21T01:22:16;3.70;;;1.38;;
35257;SDS011;21385;50.878;8.050;2023-11-21T01:24:47;2.15;;;1.58;;
35257;SDS011;21385;50.878;8.050;2023-11-21T01:27:12;2.60;;;1.45;;
35257;SDS011;21385;50.878;8.050;2023-11-21T01:29:38;2.42;;;1.50;;
35257;SDS011;21385;50.878;8.050;2023-11-21T01:32:05;13.73;;;2.83;;
35257;SDS011;21385;50.878;8.050;2023-11-21T01:34:33;1.85;;;1.58;;
35257;SDS011;21385;50.878;8.050;2023-11-21T01:36:58;1.65;;;1.45;;
35257;SDS011;21385;50.878;8.050;2023-11-21T01:39:24;1.70;;;1.60;;
35257;SDS011;21385;50.878;8.050;2023-11-21T01:41:50;1.95;;;1.55;;
35257;SDS011;21385;50.878;8.050;2023-11-21T01:44:17;1.40;;;1.30;;
35257;SDS011;21385;50.878;8.050;2023-11-21T01:46:44;4.53;;;1.92;;
35257;SDS011;21385;50.878;8.050;2023-11-21T01:49:10;1.10;;;1.00;;
35257;SDS011;21385;50.878;8.050;2023-11-21T01:51:38;2.17;;;1.88;;
35257;SDS011;21385;50.878;8.050;2023-11-21T01:54:05;2.15;;;1.60;;
35257;SDS011;21385;50.878;8.050;2023-11-21T01:56:31;4.40;;;1.45;;
35257;SDS011;21385;50.878;8.050;2023-11-21T01:58:57;1.38;;;1.27;;
35257;SDS011;21385;50.878;8.050;2023-11-21T02:01:23;2.55;;;2.03;;
35257;SDS011;21385;50.878;8.050;2023-11-21T02:03:50;1.13;;;1.05;;
35257;SDS011;21385;50.878;8.050;2023-11-21T02:06:16;2.40;;;1.40;;
35257;SDS011;21385;50.878;8.050;2023-11-21T02:08:43;1.48;;;1.10;;
35257;SDS011;21385;50.878;8.050;2023-11-21T02:11:09;2.10;;;1.00;;
35257;SDS011;21385;50.878;8.050;2023-11-21T02:13:37;1.70;;;1.55;;
35257;SDS011;21385;50.878;8.050;2023-11-21T02:16:07;2.35;;;1.70;;
35257;SDS011;21385;50.878;8.050;2023-11-21T02:18:34;1.20;;;1.00;;
35257;SDS011;21385;50.878;8.050;2023-11-21T02:21:03;3.17;;;1.92;;
35257;SDS011;21385;50.878;8.050;2023-11-21T02:23:29;1.63;;;1.52;;
35257;SDS011;21385;50.878;8.050;2023-11-21T02:25:55;3.03;;;1.90;;
35257;SDS011;21385;50.878;8.050;2023-11-21T02:28:21;3.30;;;2.03;;
35257;SDS011;21385;50.878;8.050;2023-11-21T02:30:53;7.93;;;2.08;;
35257;SDS011;21385;50.878;8.050;2023-11-21T02:33:21;3.10;;;2.30;;
35257;SDS011;21385;50.878;8.050;2023-11-21T02:35:46;2.50;;;2.13;;
35257;SDS011;21385;50.878;8.050;2023-11-21T02:38:12;1.35;;;1.25;;
35257;SDS011;21385;50.878;8.050;2023-11-21T02:40:38;1.63;;;1.38;;
35257;SDS011;21385;50.878;8.050;2023-11-21T02:43:04;6.93;;;2.63;;
35257;SDS011;21385;50.878;8.050;2023-11-21T02:45:30;1.20;;;1.10;;
35257;SDS011;21385;50.878;8.050;2023-11-21T02:47:56;2.22;;;1.42;;
35257;SDS011;21385;50.878;8.050;2023-11-21T02:50:22;2.45;;;1.48;;
35257;SDS011;21385;50.878;8.050;2023-11-21T02:52:48;4.10;;;2.15;;
35257;SDS011;21385;50.878;8.050;2023-11-21T02:55:14;1.58;;;1.23;;
35257;SDS011;21385;50.878;8.050;2023-11-21T02:57:40;3.38;;;1.27;;
35257;SDS011;21385;50.878;8.050;2023-11-21T03:00:05;1.95;;;1.23;;
35257;SDS011;21385;50.878;8.050;2023-11-21T03:02:41;5.57;;;1.02;;
35257;SDS011;21385;50.878;8.050;2023-11-21T03:05:07;1.77;;;1.65;;
35257;SDS011;21385;50.878;8.050;2023-11-21T03:07:39;8.73;;;1.63;;
35257;SDS011;21385;50.878;8.050;2023-11-21T03:10:05;2.05;;;1.30;;
35257;SDS011;21385;50.878;8.050;2023-11-21T03:12:35;1.55;;;1.08;;
35257;SDS011;21385;50.878;8.050;2023-11-21T03:15:05;2.60;;;1.40;;
35257;SDS011;21385;50.878;8.050;2023-11-21T03:17:31;1.92;;;1.23;;
35257;SDS011;21385;50.878;8.050;2023-11-21T03:19:59;1.13;;;1.02;;
35257;SDS011;21385;50.878;8.050;2023-11-21T03:22:25;5.18;;;2.38;;
35257;SDS011;21385;50.878;8.050;2023-11-21T03:24:51;2.47;;;2.10;;
35257;SDS011;21385;50.878;8.050;2023-11-21T03:27:17;3.05;;;1.73;;
35257;SDS011;21385;50.878;8.050;2023-11-21T03:29:43;2.10;;;1.27;;
35257;SDS011;21385;50.878;8.050;2023-11-21T03:32:10;7.57;;;1.90;;
35257;SDS011;21385;50.878;8.050;2023-11-21T03:34:41;1.80;;;1.67;;
35257;SDS011;21385;50.878;8.050;2023-11-21T03:37:22;1.58;;;1.45;;
35257;SDS011;21385;50.878;8.050;2023-11-21T03:39:47;4.50;;;1.70;;
35257;SDS011;21385;50.878;8.050;2023-11-21T03:42:13;3.72;;;1.73;;
35257;SDS011;21385;50.878;8.050;2023-11-21T03:44:39;2.50;;;1.50;;
35257;SDS011;21385;50.878;8.050;2023-11-21T03:47:04;2.40;;;1.48;;
35257;SDS011;21385;50.878;8.050;2023-11-21T03:49:30;1.88;;;1.45;;
35257;SDS011;21385;50.878;8.050;2023-11-21T03:51:56;2.55;;;2.28;;
35257;SDS011;21385;50.878;8.050;2023-11-21T03:54:21;4.95;;;2.88;;
35257;SDS011;21385;50.878;8.050;2023-11-21T03:56:47;2.83;;;2.47;;
35257;SDS011;21385;50.878;8.050;2023-11-21T03:59:12;3.25;;;2.17;;
35257;SDS011;21385;50.878;8.050;2023-11-21T04:01:38;5.18;;;3.30;;
35257;SDS011;21385;50.878;8.050;2023-11-21T04:04:04;3.95;;;2.88;;
35257;SDS011;21385;50.878;8.050;2023-11-21T04:06:29;2.58;;;2.38;;
35257;SDS011;21385;50.878;8.050;2023-11-21T04:08:55;5.63;;;3.00;;
35257;SDS011;21385;50.878;8.050;2023-11-21T04:11:21;2.88;;;2.55;;
35257;SDS011;21385;50.878;8.050;2023-11-21T04:13:46;3.60;;;3.03;;
35257;SDS011;21385;50.878;8.050;2023-11-21T04:16:12;14.65;;;3.45;;
35257;SDS011;21385;50.878;8.050;2023-11-21T04:18:38;3.50;;;3.05;;
35257;SDS011;21385;50.878;8.050;2023-11-21T04:21:05;4.20;;;3.13;;
35257;SDS011;21385;50.878;8.050;2023-11-21T04:23:31;6.80;;;3.58;;
35257;SDS011;21385;50.878;8.050;2023-11-21T04:25:57;3.60;;;3.22;;
35257;SDS011;21385;50.878;8.050;2023-11-21T04:28:25;6.28;;;4.00;;
35257;SDS011;21385;50.878;8.050;2023-11-21T04:30:51;20.08;;;4.03;;
35257;SDS011;21385;50.878;8.050;2023-11-21T04:33:16;3.70;;;3.17;;
35257;SDS011;21385;50.878;8.050;2023-11-21T04:35:42;5.65;;;3.92;;
35257;SDS011;21385;50.878;8.050;2023-11-21T04:38:08;3.72;;;3.30;;
35257;SDS011;21385;50.878;8.050;2023-11-21T04:40:33;16.35;;;3.55;;
35257;SDS011;21385;50.878;8.050;2023-11-21T04:42:59;6.85;;;4.40;;
35257;SDS011;21385;50.878;8.050;2023-11-21T04:45:24;6.55;;;3.75;;
35257;SDS011;21385;50.878;8.050;2023-11-21T04:47:50;7.25;;;3.67;;
35257;SDS011;21385;50.878;8.050;2023-11-21T04:50:17;5.30;;;3.83;;
35257;SDS011;21385;50.878;8.050;2023-11-21T04:52:44;10.80;;;4.07;;
35257;SDS011;21385;50.878;8.050;2023-11-21T04:55:09;11.10;;;4.78;;
35257;SDS011;21385;50.878;8.050;2023-11-21T04:57:38;6.22;;;4.53;;
35257;SDS011;21385;50.878;8.050;2023-11-21T05:00:06;6.00;;;4.22;;
35257;SDS011;21385;50.878;8.050;2023-11-21T05:02:33;4.38;;;3.90;;
35257;SDS011;21385;50.878;8.050;2023-11-21T05:05:00;4.93;;;3.78;;
35257;SDS011;21385;50.878;8.050;2023-11-21T05:07:26;3.20;;;2.90;;
35257;SDS011;21385;50.878;8.050;2023-11-21T05:09:55;6.95;;;3.78;;
35257;SDS011;21385;50.878;8.050;2023-11-21T05:12:21;4.68;;;3.38;;
35257;SDS011;21385;50.878;8.050;2023-11-21T05:14:48;10.48;;;4.60;;
35257;SDS011;21385;50.878;8.050;2023-11-21T05:17:14;6.82;;;4.60;;
35257;SDS011;21385;50.878;8.050;2023-11-21T05:19:40;3.97;;;3.60;;
35257;SDS011;21385;50.878;8.050;2023-11-21T05:22:06;3.65;;;3.15;;
35257;SDS011;21385;50.878;8.050;2023-11-21T05:24:31;13.57;;;4.65;;
35257;SDS011;21385;50.878;8.050;2023-11-21T05:26:57;5.45;;;3.90;;
35257;SDS011;21385;50.878;8.050;2023-11-21T05:29:22;5.88;;;3.80;;
35257;SDS011;21385;50.878;8.050;2023-11-21T05:31:48;6.70;;;4.22;;
35257;SDS011;21385;50.878;8.050;2023-11-21T05:34:14;5.72;;;4.80;;
35257;SDS011;21385;50.878;8.050;2023-11-21T05:36:40;5.50;;;3.38;;
35257;SDS011;21385;50.878;8.050;2023-11-21T05:39:09;6.55;;;3.63;;
35257;SDS011;21385;50.878;8.050;2023-11-21T05:41:36;23.95;;;3.67;;
35257;SDS011;21385;50.878;8.050;2023-11-21T05:44:02;4.95;;;3.72;;
35257;SDS011;21385;50.878;8.050;2023-11-21T05:46:27;3.75;;;3.35;;
35257;SDS011;21385;50.878;8.050;2023-11-21T05:48:53;6.35;;;4.47;;
35257;SDS011;21385;50.878;8.050;2023-11-21T05:51:18;6.68;;;3.83;;
35257;SDS011;21385;50.878;8.050;2023-11-21T05:53:44;6.95;;;4.10;;
35257;SDS011;21385;50.878;8.050;2023-11-21T05:56:10;5.70;;;4.75;;
35257;SDS011;21385;50.878;8.050;2023-11-21T05:58:35;8.07;;;4.50;;
35257;SDS011;21385;50.878;8.050;2023-11-21T06:01:01;5.78;;;3.67;;
35257;SDS011;21385;50.878;8.050;2023-11-21T06:03:28;5.72;;;3.60;;
35257;SDS011;21385;50.878;8.050;2023-11-21T06:05:53;13.70;;;4.68;;
35257;SDS011;21385;50.878;8.050;2023-11-21T06:08:19;6.05;;;4.28;;
35257;SDS011;21385;50.878;8.050;2023-11-21T06:10:44;6.50;;;3.83;;
35257;SDS011;21385;50.878;8.050;2023-11-21T06:13:14;4.90;;;3.92;;
35257;SDS011;21385;50.878;8.050;2023-11-21T06:15:40;5.72;;;3.78;;
35257;SDS011;21385;50.878;8.050;2023-11-21T06:18:05;10.73;;;4.88;;
35257;SDS011;21385;50.878;8.050;2023-11-21T06:20:35;5.53;;;4.35;;
35257;SDS011;21385;50.878;8.050;2023-11-21T06:23:02;5.93;;;4.30;;
35257;SDS011;21385;50.878;8.050;2023-11-21T06:25:28;5.35;;;4.63;;
35257;SDS011;21385;50.878;8.050;2023-11-21T06:27:54;9.73;;;3.70;;
35257;SDS011;21385;50.878;8.050;2023-11-21T06:30:21;8.82;;;4.30;;
35257;SDS011;21385;50.878;8.050;2023-11-21T06:32:48;8.25;;;4.68;;
35257;SDS011;21385;50.878;8.050;2023-11-21T06:35:14;5.13;;;3.22;;
35257;SDS011;21385;50.878;8.050;2023-11-21T06:37:40;6.55;;;4.50;;
35257;SDS011;21385;50.878;8.050;2023-11-21T06:40:06;5.95;;;3.85;;
35257;SDS011;21385;50.878;8.050;2023-11-21T06:42:32;6.28;;;3.50;;
35257;SDS011;21385;50.878;8.050;2023-11-21T06:45:03;4.05;;;3.70;;
35257;SDS011;21385;50.878;8.050;2023-11-21T06:47:29;6.65;;;4.32;;
35257;SDS011;21385;50.878;8.050;2023-11-21T06:49:56;6.57;;;4.65;;
35257;SDS011;21385;50.878;8.050;2023-11-21T06:52:22;6.85;;;4.13;;
35257;SDS011;21385;50.878;8.050;2023-11-21T06:54:48;16.60;;;4.57;;
35257;SDS011;21385;50.878;8.050;2023-11-21T06:57:16;10.95;;;4.05;;
35257;SDS011;21385;50.878;8.050;2023-11-21T06:59:42;11.90;;;5.20;;
35257;SDS011;21385;50.878;8.050;2023-11-21T07:02:08;6.88;;;4.57;;
35257;SDS011;21385;50.878;8.050;2023-11-21T07:04:34;5.88;;;4.32;;
35257;SDS011;21385;50.878;8.050;2023-11-21T07:07:01;13.18;;;3.92;;
35257;SDS011;21385;50.878;8.050;2023-11-21T07:09:29;6.00;;;5.43;;
35257;SDS011;21385;50.878;8.050;2023-11-21T07:11:56;6.00;;;4.05;;
35257;SDS011;21385;50.878;8.050;2023-11-21T07:14:21;7.70;;;3.55;;
35257;SDS011;21385;50.878;8.050;2023-11-21T07:16:47;3.53;;;3.20;;
35257;SDS011;21385;50.878;8.050;2023-11-21T07:19:13;5.70;;;4.75;;
35257;SDS011;21385;50.878;8.050;2023-11-21T07:21:39;4.25;;;3.63;;
35257;SDS011;21385;50.878;8.050;2023-11-21T07:24:07;6.43;;;3.70;;
35257;SDS011;21385;50.878;8.050;2023-11-21T07:26:33;6.07;;;4.20;;
35257;SDS011;21385;50.878;8.050;2023-11-21T07:28:59;9.68;;;4.75;;
35257;SDS011;21385;50.878;8.050;2023-11-21T07:31:26;8.25;;;4.63;;
35257;SDS011;21385;50.878;8.050;2023-11-21T07:33:52;12.70;;;4.78;;
35257;SDS011;21385;50.878;8.050;2023-11-21T07:36:17;7.60;;;4.72;;
35257;SDS011;21385;50.878;8.050;2023-11-21T07:38:45;6.15;;;4.85;;
35257;SDS011;21385;50.878;8.050;2023-11-21T07:41:11;11.57;;;5.72;;
35257;SDS011;21385;50.878;8.050;2023-11-21T07:43:40;4.82;;;3.97;;
35257;SDS011;21385;50.878;8.050;2023-11-21T07:46:06;8.05;;;5.05;;
35257;SDS011;21385;50.878;8.050;2023-11-21T07:48:33;21.50;;;4.57;;
35257;SDS011;21385;50.878;8.050;2023-11-21T07:50:58;7.45;;;4.80;;
35257;SDS011;21385;50.878;8.050;2023-11-21T07:53:25;13.05;;;5.00;;
35257;SDS011;21385;50.878;8.050;2023-11-21T07:55:51;13.02;;;4.20;;
35257;SDS011;21385;50.878;8.050;2023-11-21T07:58:17;9.77;;;4.65;;
35257;SDS011;21385;50.878;8.050;2023-11-21T08:00:43;4.45;;;3.72;;
35257;SDS011;21385;50.878;8.050;2023-11-21T08:03:09;5.25;;;4.45;;
35257;SDS011;21385;50.878;8.050;2023-11-21T08:05:35;10.10;;;4.80;;
35257;SDS011;21385;50.878;8.050;2023-11-21T08:08:00;7.70;;;5.03;;
35257;SDS011;21385;50.878;8.050;2023-11-21T08:10:26;5.13;;;3.97;;
35257;SDS011;21385;50.878;8.050;2023-11-21T08:12:51;9.05;;;3.90;;
35257;SDS011;21385;50.878;8.050;2023-11-21T08:15:18;8.52;;;4.90;;
35257;SDS011;21385;50.878;8.050;2023-11-21T08:17:44;3.88;;;3.30;;
35257;SDS011;21385;50.878;8.050;2023-11-21T08:20:11;6.82;;;5.22;;
35257;SDS011;21385;50.878;8.050;2023-11-21T08:22:37;16.52;;;6.97;;
35257;SDS011;21385;50.878;8.050;2023-11-21T08:25:06;6.93;;;4.78;;
35257;SDS011;21385;50.878;8.050;2023-11-21T08:27:32;8.10;;;4.63;;
35257;SDS011;21385;50.878;8.050;2023-11-21T08:29:59;7.30;;;5.65;;
35257;SDS011;21385;50.878;8.050;2023-11-21T08:32:25;6.00;;;4.38;;
35257;SDS011;21385;50.878;8.050;2023-11-21T08:34:51;7.40;;;4.85;;
35257;SDS011;21385;50.878;8.050;2023-11-21T08:37:16;17.40;;;8.20;;
35257;SDS011;21385;50.878;8.050;2023-11-21T08:39:45;9.02;;;6.50;;
35257;SDS011;21385;50.878;8.050;2023-11-21T08:42:13;16.08;;;7.45;;
35257;SDS011;21385;50.878;8.050;2023-11-21T08:44:39;7.80;;;5.57;;
35257;SDS011;21385;50.878;8.050;2023-11-21T08:47:05;6.82;;;5.35;;
35257;SDS011;21385;50.878;8.050;2023-11-21T08:49:31;12.05;;;6.45;;
35257;SDS011;21385;50.878;8.050;2023-11-21T08:51:57;10.63;;;6.32;;
35257;SDS011;21385;50.878;8.050;2023-11-21T08:54:24;11.60;;;8.07;;
35257;SDS011;21385;50.878;8.050;2023-11-21T08:56:51;12.63;;;7.20;;
35257;SDS011;21385;50.878;8.050;2023-11-21T08:59:17;9.60;;;7.50;;
35257;SDS011;21385;50.878;8.050;2023-11-21T09:01:42;8.07;;;6.28;;
35257;SDS011;21385;50.878;8.050;2023-11-21T09:04:08;9.00;;;6.22;;
35257;SDS011;21385;50.878;8.050;2023-11-21T09:06:33;18.23;;;8.27;;
35257;SDS011;21385;50.878;8.050;2023-11-21T09:09:00;13.32;;;6.70;;
35257;SDS011;21385;50.878;8.050;2023-11-21T09:11:25;10.27;;;7.70;;
35257;SDS011;21385;50.878;8.050;2023-11-21T09:13:56;9.25;;;6.97;;
35257;SDS011;21385;50.878;8.050;2023-11-21T09:16:22;12.82;;;7.03;;
35257;SDS011;21385;50.878;8.050;2023-11-21T09:18:48;8.43;;;6.20;;
35257;SDS011;21385;50.878;8.050;2023-11-21T09:21:14;12.35;;;7.47;;
35257;SDS011;21385;50.878;8.050;2023-11-21T09:23:39;8.93;;;7.53;;
35257;SDS011;21385;50.878;8.050;2023-11-21T09:26:05;14.23;;;8.00;;
35257;SDS011;21385;50.878;8.050;2023-11-21T09:28:30;7.97;;;6.55;;
35257;SDS011;21385;50.878;8.050;2023-11-21T09:30:56;12.25;;;6.45;;
35257;SDS011;21385;50.878;8.050;2023-11-21T09:33:21;12.50;;;6.95;;
35257;SDS011;21385;50.878;8.050;2023-11-21T09:35:49;8.15;;;7.30;;
35257;SDS011;21385;50.878;8.050;2023-11-21T09:38:16;11.40;;;7.35;;
35257;SDS011;21385;50.878;8.050;2023-11-21T09:40:41;8.05;;;5.93;;
35257;SDS011;21385;50.878;8.050;2023-11-21T09:43:17;9.18;;;7.43;;
35257;SDS011;21385;50.878;8.050;2023-11-21T09:45:46;12.57;;;7.13;;
35257;SDS011;21385;50.878;8.050;2023-11-21T09:48:15;8.32;;;7.15;;
35257;SDS011;21385;50.878;8.050;2023-11-21T09:50:42;8.00;;;5.68;;
35257;SDS011;21385;50.878;8.050;2023-11-21T09:55:46;14.10;;;6.32;;
35257;SDS011;21385;50.878;8.050;2023-11-21T09:58:15;6.90;;;5.18;;
35257;SDS011;21385;50.878;8.050;2023-11-21T10:00:42;10.88;;;5.20;;
35257;SDS011;21385;50.878;8.050;2023-11-21T10:03:08;9.48;;;4.85;;
35257;SDS011;21385;50.878;8.050;2023-11-21T10:05:35;9.18;;;5.05;;
35257;SDS011;21385;50.878;8.050;2023-11-21T10:08:02;9.32;;;4.95;;
35257;SDS011;21385;50.878;8.050;2023-11-21T10:10:31;16.05;;;5.80;;
35257;SDS011;21385;50.878;8.050;2023-11-21T10:12:57;6.15;;;5.45;;
35257;SDS011;21385;50.878;8.050;2023-11-21T10:15:27;10.60;;;5.88;;
35257;SDS011;21385;50.878;8.050;2023-11-21T10:17:53;8.63;;;5.68;;
35257;SDS011;21385;50.878;8.050;2023-11-21T10:20:20;6.35;;;3.90;;
35257;SDS011;21385;50.878;8.050;2023-11-21T10:22:46;8.52;;;5.10;;
35257;SDS011;21385;50.878;8.050;2023-11-21T10:25:12;9.02;;;4.68;;
35257;SDS011;21385;50.878;8.050;2023-11-21T10:27:41;10.30;;;4.35;;
35257;SDS011;21385;50.878;8.050;2023-11-21T10:30:08;7.85;;;4.40;;
35257;SDS011;21385;50.878;8.050;2023-11-21T10:32:37;7.47;;;4.72;;
35257;SDS011;21385;50.878;8.050;2023-11-21T10:35:07;11.85;;;4.43;;
35257;SDS011;21385;50.878;8.050;2023-11-21T10:37:41;14.35;;;5.22;;
35257;SDS011;21385;50.878;8.050;2023-11-21T10:40:11;4.53;;;3.95;;
35257;SDS011;21385;50.878;8.050;2023-11-21T10:42:40;4.72;;;3.90;;
35257;SDS011;21385;50.878;8.050;2023-11-21T10:45:07;6.05;;;5.32;;
35257;SDS011;21385;50.878;8.050;2023-11-21T10:47:41;10.75;;;5.53;;
35257;SDS011;21385;50.878;8.050;2023-11-21T10:50:08;10.68;;;4.82;;
35257;SDS011;21385;50.878;8.050;2023-11-21T10:52:42;5.15;;;4.05;;
35257;SDS011;21385;50.878;8.050;2023-11-21T10:55:18;14.63;;;5.75;;
35257;SDS011;21385;50.878;8.050;2023-11-21T10:57:51;10.88;;;4.72;;
35257;SDS011;21385;50.878;8.050;2023-11-21T11:00:18;6.93;;;5.00;;
35257;SDS011;21385;50.878;8.050;2023-11-21T11:02:51;10.10;;;4.38;;
35257;SDS011;21385;50.878;8.050;2023-11-21T11:05:21;8.98;;;4.47;;
35257;SDS011;21385;50.878;8.050;2023-11-21T11:08:04;7.80;;;4.18;;
35257;SDS011;21385;50.878;8.050;2023-11-21T11:10:31;14.75;;;6.15;;
35257;SDS011;21385;50.878;8.050;2023-11-21T11:12:57;4.22;;;3.83;;
35257;SDS011;21385;50.878;8.050;2023-11-21T11:15:24;6.18;;;3.85;;
35257;SDS011;21385;50.878;8.050;2023-11-21T11:17:53;16.27;;;4.85;;
35257;SDS011;21385;50.878;8.050;2023-11-21T11:20:23;8.18;;;6.10;;
35257;SDS011;21385;50.878;8.050;2023-11-21T11:28:27;5.60;;;4.32;;
35257;SDS011;21385;50.878;8.050;2023-11-21T11:31:04;4.72;;;3.67;;
35257;SDS011;21385;50.878;8.050;2023-11-21T11:33:53;8.65;;;4.90;;
35257;SDS011;21385;50.878;8.050;2023-11-21T11:36:36;4.47;;;4.03;;
35257;SDS011;21385;50.878;8.050;2023-11-21T11:42:01;7.20;;;3.75;;
35257;SDS011;21385;50.878;8.050;2023-11-21T11:47:18;8.48;;;3.72;;
35257;SDS011;21385;50.878;8.050;2023-11-21T11:49:57;6.18;;;3.45;;
35257;SDS011;21385;50.878;8.050;2023-11-21T11:55:02;22.52;;;10.63;;
35257;SDS011;21385;50.878;8.050;2023-11-21T11:57:32;17.23;;;5.28;;
35257;SDS011;21385;50.878;8.050;2023-11-21T12:02:41;9.02;;;4.30;;
35257;SDS011;21385;50.878;8.050;2023-11-21T12:05:12;4.07;;;3.63;;
35257;SDS011;21385;50.878;8.050;2023-11-21T12:07:42;4.85;;;4.38;;
35257;SDS011;21385;50.878;8.050;2023-11-21T12:10:19;5.25;;;4.57;;
35257;SDS011;21385;50.878;8.050;2023-11-21T12:12:47;7.05;;;4.90;;
35257;SDS011;21385;50.878;8.050;2023-11-21T12:15:13;8.45;;;5.43;;
35257;SDS011;21385;50.878;8.050;2023-11-21T12:17:42;9.52;;;6.85;;
35257;SDS011;21385;50.878;8.050;2023-11-21T12:20:09;8.38;;;4.40;;
35257;SDS011;21385;50.878;8.050;2023-11-21T12:22:48;6.57;;;5.57;;
35257;SDS011;21385;50.878;8.050;2023-11-21T12:27:47;4.95;;;4.25;;
35257;SDS011;21385;50.878;8.050;2023-11-21T12:30:17;6.32;;;4.18;;
35257;SDS011;21385;50.878;8.050;2023-11-21T12:32:44;5.63;;;3.65;;
35257;SDS011;21385;50.878;8.050;2023-11-21T12:35:13;7.43;;;4.57;;
35257;SDS011;21385;50.878;8.050;2023-11-21T12:37:40;6.18;;;3.85;;
35257;SDS011;21385;50.878;8.050;2023-11-21T12:40:10;7.93;;;4.05;;
35257;SDS011;21385;50.878;8.050;2023-11-21T12:43:01;5.47;;;4.00;;
35257;SDS011;21385;50.878;8.050;2023-11-21T12:45:29;8.10;;;4.30;;
35257;SDS011;21385;50.878;8.050;2023-11-21T12:48:05;3.55;;;3.13;;
35257;SDS011;21385;50.878;8.050;2023-11-21T12:50:36;6.00;;;4.43;;
35257;SDS011;21385;50.878;8.050;2023-11-21T12:53:11;8.60;;;5.97;;
35257;SDS011;21385;50.878;8.050;2023-11-21T12:55:37;18.05;;;6.63;;
35257;SDS011;21385;50.878;8.050;2023-11-21T12:58:04;7.13;;;5.25;;
35257;SDS011;21385;50.878;8.050;2023-11-21T13:00:41;11.73;;;5.07;;
35257;SDS011;21385;50.878;8.050;2023-11-21T13:03:09;5.05;;;3.85;;
35257;SDS011;21385;50.878;8.050;2023-11-21T13:05:38;3.45;;;2.97;;
35257;SDS011;21385;50.878;8.050;2023-11-21T13:08:09;11.43;;;3.95;;
35257;SDS011;21385;50.878;8.050;2023-11-21T13:10:38;3.58;;;2.83;;
35257;SDS011;21385;50.878;8.050;2023-11-21T13:13:07;5.82;;;3.50;;
35257;SDS011;21385;50.878;8.050;2023-11-21T13:15:35;6.07;;;3.35;;
35257;SDS011;21385;50.878;8.050;2023-11-21T13:18:05;5.95;;;2.90;;
35257;SDS011;21385;50.878;8.050;2023-11-21T13:20:32;13.38;;;3.42;;
35257;SDS011;21385;50.878;8.050;2023-11-21T13:22:57;3.53;;;2.80;;
35257;SDS011;21385;50.878;8.050;2023-11-21T13:25:27;3.80;;;2.70;;
35257;SDS011;21385;50.878;8.050;2023-11-21T13:28:02;2.92;;;2.53;;
35257;SDS011;21385;50.878;8.050;2023-11-21T13:30:28;9.15;;;3.08;;
35257;SDS011;21385;50.878;8.050;2023-11-21T13:33:03;5.82;;;3.65;;
35257;SDS011;21385;50.878;8.050;2023-11-21T13:35:36;8.90;;;3.72;;
35257;SDS011;21385;50.878;8.050;2023-11-21T13:38:14;13.93;;;3.47;;
35257;SDS011;21385;50.878;8.050;2023-11-21T13:40:42;8.45;;;4.90;;
35257;SDS011;21385;50.878;8.050;2023-11-21T13:43:18;12.07;;;3.45;;
35257;SDS011;21385;50.878;8.050;2023-11-21T13:45:49;4.43;;;2.08;;
35257;SDS011;21385;50.878;8.050;2023-11-21T13:48:22;5.00;;;3.00;;
35257;SDS011;21385;50.878;8.050;2023-11-21T13:50:56;6.95;;;4.25;;
35257;SDS011;21385;50.878;8.050;2023-11-21T13:53:33;8.27;;;2.92;;
35257;SDS011;21385;50.878;8.050;2023-11-21T13:56:02;3.47;;;2.03;;
35257;SDS011;21385;50.878;8.050;2023-11-21T13:58:28;4.57;;;2.95;;
35257;SDS011;21385;50.878;8.050;2023-11-21T14:01:10;4.15;;;2.28;;
35257;SDS011;21385;50.878;8.050;2023-11-21T14:04:03;7.10;;;2.58;;
35257;SDS011;21385;50.878;8.050;2023-11-21T14:06:41;3.20;;;2.10;;
35257;SDS011;21385;50.878;8.050;2023-11-21T14:09:19;3.67;;;2.47;;
35257;SDS011;21385;50.878;8.050;2023-11-21T14:12:08;7.15;;;2.72;;
35257;SDS011;21385;50.878;8.050;2023-11-21T14:14:37;7.03;;;3.72;;
35257;SDS011;21385;50.878;8.050;2023-11-21T14:17:04;5.07;;;3.13;;
35257;SDS011;21385;50.878;8.050;2023-11-21T14:19:32;2.53;;;1.83;;
35257;SDS011;21385;50.878;8.050;2023-11-21T14:21:58;3.80;;;1.77;;
35257;SDS011;21385;50.878;8.050;2023-11-21T14:24:24;6.13;;;2.25;;
35257;SDS011;21385;50.878;8.050;2023-11-21T14:26:50;14.60;;;2.13;;
35257;SDS011;21385;50.878;8.050;2023-11-21T14:29:17;3.45;;;2.20;;
35257;SDS011;21385;50.878;8.050;2023-11-21T14:31:47;3.97;;;2.05;;
35257;SDS011;21385;50.878;8.050;2023-11-21T14:34:13;2.85;;;2.53;;
35257;SDS011;21385;50.878;8.050;2023-11-21T14:36:40;3.63;;;2.60;;
35257;SDS011;21385;50.878;8.050;2023-11-21T14:39:06;2.35;;;2.00;;
35257;SDS011;21385;50.878;8.050;2023-11-21T14:41:34;3.72;;;2.55;;
35257;SDS011;21385;50.878;8.050;2023-11-21T14:44:02;2.53;;;1.77;;
35257;SDS011;21385;50.878;8.050;2023-11-21T14:46:28;10.82;;;2.38;;
35257;SDS011;21385;50.878;8.050;2023-11-21T14:48:54;3.75;;;2.22;;
35257;SDS011;21385;50.878;8.050;2023-11-21T14:51:26;5.28;;;2.72;;
35257;SDS011;21385;50.878;8.050;2023-11-21T14:53:56;7.70;;;2.28;;
35257;SDS011;21385;50.878;8.050;2023-11-21T14:56:26;5.65;;;2.90;;
35257;SDS011;21385;50.878;8.050;2023-11-21T14:58:55;13.05;;;5.75;;
35257;SDS011;21385;50.878;8.050;2023-11-21T15:01:22;9.65;;;4.57;;
35257;SDS011;21385;50.878;8.050;2023-11-21T15:04:07;4.60;;;3.58;;
35257;SDS011;21385;50.878;8.050;2023-11-21T15:06:39;4.43;;;3.20;;
35257;SDS011;21385;50.878;8.050;2023-11-21T15:09:08;3.30;;;2.53;;
35257;SDS011;21385;50.878;8.050;2023-11-21T15:11:34;2.67;;;2.47;;